sensor_id;sensor_type;location;lat;lon;timestamp;temperature;humidity
54202;DHT22;40108;53.152;5.844;2023-05-07T00:01:45;13.10;95.30
54202;DHT22;40108;53.152;5.844;2023-05-07T00:04:11;13.10;95.40
54202;DHT22;40108;53.152;5.844;2023-05-07T00:06:37;13.10;95.30
54202;DHT22;40108;53.152;5.844;2023-05-07T00:09:02;13.10;95.40
54202;DHT22;40108;53.152;5.844;2023-05-07T00:11:29;13.10;95.40
54202;DHT22;40108;53.152;5.844;2023-05-07T00:13:56;13.10;95.30
54202;DHT22;40108;53.152;5.844;2023-05-07T00:16:21;13.10;95.30
54202;DHT22;40108;53.152;5.844;2023-05-07T00:18:47;13.00;95.40
54202;DHT22;40108;53.152;5.844;2023-05-07T00:21:13;13.00;95.40
54202;DHT22;40108;53.152;5.844;2023-05-07T00:23:39;13.00;95.50
54202;DHT22;40108;53.152;5.844;2023-05-07T00:26:04;12.90;95.50
54202;DHT22;40108;53.152;5.844;2023-05-07T00:28:30;12.90;95.40
54202;DHT22;40108;53.152;5.844;2023-05-07T00:30:56;12.90;95.50
54202;DHT22;40108;53.152;5.844;2023-05-07T00:33:21;12.90;95.50
54202;DHT22;40108;53.152;5.844;2023-05-07T00:35:48;12.90;95.50
54202;DHT22;40108;53.152;5.844;2023-05-07T00:38:14;12.90;95.60
54202;DHT22;40108;53.152;5.844;2023-05-07T00:40:40;12.90;95.60
54202;DHT22;40108;53.152;5.844;2023-05-07T00:43:06;12.90;95.60
54202;DHT22;40108;53.152;5.844;2023-05-07T00:45:33;12.90;95.70
54202;DHT22;40108;53.152;5.844;2023-05-07T00:48:00;12.90;95.80
54202;DHT22;40108;53.152;5.844;2023-05-07T00:50:27;12.90;95.80
54202;DHT22;40108;53.152;5.844;2023-05-07T00:52:53;12.90;95.80
54202;DHT22;40108;53.152;5.844;2023-05-07T00:55:20;12.80;95.80
54202;DHT22;40108;53.152;5.844;2023-05-07T00:57:46;12.90;95.80
54202;DHT22;40108;53.152;5.844;2023-05-07T01:00:12;12.90;95.80
54202;DHT22;40108;53.152;5.844;2023-05-07T01:02:39;12.90;95.90
54202;DHT22;40108;53.152;5.844;2023-05-07T01:05:06;12.80;96.00
54202;DHT22;40108;53.152;5.844;2023-05-07T01:07:33;12.80;96.00
54202;DHT22;40108;53.152;5.844;2023-05-07T01:10:00;12.80;96.00
54202;DHT22;40108;53.152;5.844;2023-05-07T01:12:28;12.80;96.00
54202;DHT22;40108;53.152;5.844;2023-05-07T01:14:55;12.80;95.90
54202;DHT22;40108;53.152;5.844;2023-05-07T01:17:21;12.70;96.00
54202;DHT22;40108;53.152;5.844;2023-05-07T01:19:46;12.80;96.00
54202;DHT22;40108;53.152;5.844;2023-05-07T01:22:15;12.80;96.10
54202;DHT22;40108;53.152;5.844;2023-05-07T01:24:42;12.80;96.00
54202;DHT22;40108;53.152;5.844;2023-05-07T01:27:08;12.80;96.10
54202;DHT22;40108;53.152;5.844;2023-05-07T01:29:34;12.70;96.10
54202;DHT22;40108;53.152;5.844;2023-05-07T01:32:01;12.80;96.10
54202;DHT22;40108;53.152;5.844;2023-05-07T01:34:32;12.70;96.20
54202;DHT22;40108;53.152;5.844;2023-05-07T01:36:59;12.70;96.30
54202;DHT22;40108;53.152;5.844;2023-05-07T01:39:28;12.70;96.30
54202;DHT22;40108;53.152;5.844;2023-05-07T01:41:59;12.70;96.20
54202;DHT22;40108;53.152;5.844;2023-05-07T01:44:25;12.70;96.30
54202;DHT22;40108;53.152;5.844;2023-05-07T01:46:51;12.70;96.30
54202;DHT22;40108;53.152;5.844;2023-05-07T01:49:18;12.70;96.40
54202;DHT22;40108;53.152;5.844;2023-05-07T01:51:44;12.70;96.40
54202;DHT22;40108;53.152;5.844;2023-05-07T01:54:10;12.70;96.40
54202;DHT22;40108;53.152;5.844;2023-05-07T01:56:36;12.70;96.40
54202;DHT22;40108;53.152;5.844;2023-05-07T01:59:01;12.70;96.40
54202;DHT22;40108;53.152;5.844;2023-05-07T02:01:27;12.70;96.40
54202;DHT22;40108;53.152;5.844;2023-05-07T02:03:53;12.60;96.40
54202;DHT22;40108;53.152;5.844;2023-05-07T02:06:19;12.60;96.40
54202;DHT22;40108;53.152;5.844;2023-05-07T02:08:45;12.60;96.50
54202;DHT22;40108;53.152;5.844;2023-05-07T02:11:11;12.60;96.50
54202;DHT22;40108;53.152;5.844;2023-05-07T02:13:37;12.60;96.60
54202;DHT22;40108;53.152;5.844;2023-05-07T02:16:03;12.60;96.60
54202;DHT22;40108;53.152;5.844;2023-05-07T02:18:29;12.60;96.60
54202;DHT22;40108;53.152;5.844;2023-05-07T02:20:55;12.50;96.60
54202;DHT22;40108;53.152;5.844;2023-05-07T02:23:21;12.50;96.60
54202;DHT22;40108;53.152;5.844;2023-05-07T02:25:46;12.50;96.70
54202;DHT22;40108;53.152;5.844;2023-05-07T02:28:12;12.50;96.60
54202;DHT22;40108;53.152;5.844;2023-05-07T02:30:38;12.50;96.70
54202;DHT22;40108;53.152;5.844;2023-05-07T02:33:04;12.40;96.60
54202;DHT22;40108;53.152;5.844;2023-05-07T02:35:30;12.40;96.70
54202;DHT22;40108;53.152;5.844;2023-05-07T02:37:55;12.50;96.70
54202;DHT22;40108;53.152;5.844;2023-05-07T02:40:21;12.40;96.60
54202;DHT22;40108;53.152;5.844;2023-05-07T02:42:47;12.40;96.60
54202;DHT22;40108;53.152;5.844;2023-05-07T02:45:12;12.40;96.60
54202;DHT22;40108;53.152;5.844;2023-05-07T02:47:40;12.40;96.60
54202;DHT22;40108;53.152;5.844;2023-05-07T02:50:06;12.40;96.60
54202;DHT22;40108;53.152;5.844;2023-05-07T02:52:32;12.40;96.60
54202;DHT22;40108;53.152;5.844;2023-05-07T02:54:57;12.40;96.50
54202;DHT22;40108;53.152;5.844;2023-05-07T02:57:23;12.30;96.50
54202;DHT22;40108;53.152;5.844;2023-05-07T02:59:49;12.30;96.40
54202;DHT22;40108;53.152;5.844;2023-05-07T03:02:15;12.30;96.50
54202;DHT22;40108;53.152;5.844;2023-05-07T03:04:40;12.20;96.40
54202;DHT22;40108;53.152;5.844;2023-05-07T03:07:07;12.20;96.30
54202;DHT22;40108;53.152;5.844;2023-05-07T03:09:32;12.20;96.30
54202;DHT22;40108;53.152;5.844;2023-05-07T03:11:58;12.20;96.30
54202;DHT22;40108;53.152;5.844;2023-05-07T03:14:24;12.20;96.30
54202;DHT22;40108;53.152;5.844;2023-05-07T03:16:50;12.10;96.30
54202;DHT22;40108;53.152;5.844;2023-05-07T03:19:15;12.10;96.30
54202;DHT22;40108;53.152;5.844;2023-05-07T03:21:41;12.10;96.40
54202;DHT22;40108;53.152;5.844;2023-05-07T03:24:07;12.10;96.40
54202;DHT22;40108;53.152;5.844;2023-05-07T03:26:33;12.10;96.30
54202;DHT22;40108;53.152;5.844;2023-05-07T03:28:58;12.10;96.30
54202;DHT22;40108;53.152;5.844;2023-05-07T03:31:24;12.10;96.30
54202;DHT22;40108;53.152;5.844;2023-05-07T03:33:55;12.00;96.30
54202;DHT22;40108;53.152;5.844;2023-05-07T03:36:21;12.00;96.30
54202;DHT22;40108;53.152;5.844;2023-05-07T03:38:48;11.90;96.10
54202;DHT22;40108;53.152;5.844;2023-05-07T03:41:14;11.90;96.10
54202;DHT22;40108;53.152;5.844;2023-05-07T03:43:40;11.90;96.10
54202;DHT22;40108;53.152;5.844;2023-05-07T03:46:05;11.80;96.10
54202;DHT22;40108;53.152;5.844;2023-05-07T03:48:31;11.80;96.10
54202;DHT22;40108;53.152;5.844;2023-05-07T03:50:58;11.80;96.10
54202;DHT22;40108;53.152;5.844;2023-05-07T03:53:24;11.70;96.10
54202;DHT22;40108;53.152;5.844;2023-05-07T03:55:49;11.80;96.10
54202;DHT22;40108;53.152;5.844;2023-05-07T03:58:16;11.70;96.10
54202;DHT22;40108;53.152;5.844;2023-05-07T04:00:42;11.70;96.10
54202;DHT22;40108;53.152;5.844;2023-05-07T04:03:08;11.70;96.00
54202;DHT22;40108;53.152;5.844;2023-05-07T04:05:33;11.70;96.00
54202;DHT22;40108;53.152;5.844;2023-05-07T04:08:00;11.60;96.00
54202;DHT22;40108;53.152;5.844;2023-05-07T04:10:26;11.70;96.10
54202;DHT22;40108;53.152;5.844;2023-05-07T04:12:53;11.60;96.10
54202;DHT22;40108;53.152;5.844;2023-05-07T04:15:19;11.60;96.10
54202;DHT22;40108;53.152;5.844;2023-05-07T04:17:45;11.60;96.10
54202;DHT22;40108;53.152;5.844;2023-05-07T04:20:15;11.60;96.20
54202;DHT22;40108;53.152;5.844;2023-05-07T04:22:41;11.60;96.20
54202;DHT22;40108;53.152;5.844;2023-05-07T04:25:07;11.60;96.30
54202;DHT22;40108;53.152;5.844;2023-05-07T04:27:34;11.60;96.30
54202;DHT22;40108;53.152;5.844;2023-05-07T04:30:01;11.60;96.40
54202;DHT22;40108;53.152;5.844;2023-05-07T04:32:28;11.60;96.40
54202;DHT22;40108;53.152;5.844;2023-05-07T04:34:55;11.60;96.40
54202;DHT22;40108;53.152;5.844;2023-05-07T04:37:21;11.60;96.40
54202;DHT22;40108;53.152;5.844;2023-05-07T04:39:47;11.50;96.40
54202;DHT22;40108;53.152;5.844;2023-05-07T04:42:16;11.50;96.30
54202;DHT22;40108;53.152;5.844;2023-05-07T04:44:43;11.50;96.40
54202;DHT22;40108;53.152;5.844;2023-05-07T04:47:09;11.50;96.40
54202;DHT22;40108;53.152;5.844;2023-05-07T04:49:36;11.50;96.40
54202;DHT22;40108;53.152;5.844;2023-05-07T04:52:01;11.50;96.30
54202;DHT22;40108;53.152;5.844;2023-05-07T04:54:28;11.50;96.40
54202;DHT22;40108;53.152;5.844;2023-05-07T04:56:54;11.50;96.20
54202;DHT22;40108;53.152;5.844;2023-05-07T04:59:20;11.50;96.20
54202;DHT22;40108;53.152;5.844;2023-05-07T05:01:45;11.50;96.20
54202;DHT22;40108;53.152;5.844;2023-05-07T05:04:11;11.50;96.20
54202;DHT22;40108;53.152;5.844;2023-05-07T05:06:37;11.50;96.20
54202;DHT22;40108;53.152;5.844;2023-05-07T05:09:02;11.60;96.20
54202;DHT22;40108;53.152;5.844;2023-05-07T05:11:30;11.60;96.00
54202;DHT22;40108;53.152;5.844;2023-05-07T05:13:56;11.50;96.10
54202;DHT22;40108;53.152;5.844;2023-05-07T05:16:22;11.50;96.00
54202;DHT22;40108;53.152;5.844;2023-05-07T05:18:48;11.50;96.00
54202;DHT22;40108;53.152;5.844;2023-05-07T05:21:13;11.50;96.00
54202;DHT22;40108;53.152;5.844;2023-05-07T05:23:39;11.50;96.00
54202;DHT22;40108;53.152;5.844;2023-05-07T05:26:07;11.50;96.00
54202;DHT22;40108;53.152;5.844;2023-05-07T05:28:33;11.50;95.90
54202;DHT22;40108;53.152;5.844;2023-05-07T05:30:59;11.50;95.90
54202;DHT22;40108;53.152;5.844;2023-05-07T05:33:24;11.50;95.80
54202;DHT22;40108;53.152;5.844;2023-05-07T05:35:50;11.50;95.80
54202;DHT22;40108;53.152;5.844;2023-05-07T05:38:16;11.50;95.80
54202;DHT22;40108;53.152;5.844;2023-05-07T05:40:42;11.50;95.70
54202;DHT22;40108;53.152;5.844;2023-05-07T05:43:07;11.50;95.70
54202;DHT22;40108;53.152;5.844;2023-05-07T05:45:33;11.50;95.80
54202;DHT22;40108;53.152;5.844;2023-05-07T05:47:59;11.50;95.80
54202;DHT22;40108;53.152;5.844;2023-05-07T05:50:25;11.60;95.70
54202;DHT22;40108;53.152;5.844;2023-05-07T05:52:51;11.60;95.60
54202;DHT22;40108;53.152;5.844;2023-05-07T05:55:16;11.60;95.40
54202;DHT22;40108;53.152;5.844;2023-05-07T05:57:42;11.50;95.40
54202;DHT22;40108;53.152;5.844;2023-05-07T06:00:09;11.50;95.40
54202;DHT22;40108;53.152;5.844;2023-05-07T06:02:34;11.60;95.50
54202;DHT22;40108;53.152;5.844;2023-05-07T06:05:00;11.50;95.40
54202;DHT22;40108;53.152;5.844;2023-05-07T06:07:26;11.50;95.40
54202;DHT22;40108;53.152;5.844;2023-05-07T06:09:51;11.60;95.50
54202;DHT22;40108;53.152;5.844;2023-05-07T06:12:17;11.60;95.60
54202;DHT22;40108;53.152;5.844;2023-05-07T06:14:43;11.60;95.20
54202;DHT22;40108;53.152;5.844;2023-05-07T06:17:09;11.60;95.20
54202;DHT22;40108;53.152;5.844;2023-05-07T06:19:35;11.70;95.10
54202;DHT22;40108;53.152;5.844;2023-05-07T06:22:01;11.70;95.00
54202;DHT22;40108;53.152;5.844;2023-05-07T06:24:27;11.70;95.00
54202;DHT22;40108;53.152;5.844;2023-05-07T06:26:53;11.70;95.00
54202;DHT22;40108;53.152;5.844;2023-05-07T06:29:18;11.70;94.70
54202;DHT22;40108;53.152;5.844;2023-05-07T06:31:44;11.80;94.40
54202;DHT22;40108;53.152;5.844;2023-05-07T06:34:10;11.80;94.70
54202;DHT22;40108;53.152;5.844;2023-05-07T06:36:40;11.80;94.50
54202;DHT22;40108;53.152;5.844;2023-05-07T06:39:06;11.80;94.50
54202;DHT22;40108;53.152;5.844;2023-05-07T06:41:31;11.90;94.50
54202;DHT22;40108;53.152;5.844;2023-05-07T06:43:57;11.90;94.20
54202;DHT22;40108;53.152;5.844;2023-05-07T06:46:23;11.90;94.10
54202;DHT22;40108;53.152;5.844;2023-05-07T06:48:48;12.00;94.20
54202;DHT22;40108;53.152;5.844;2023-05-07T06:51:14;12.00;94.10
54202;DHT22;40108;53.152;5.844;2023-05-07T06:53:40;12.00;94.00
54202;DHT22;40108;53.152;5.844;2023-05-07T06:56:06;12.10;94.20
54202;DHT22;40108;53.152;5.844;2023-05-07T06:58:32;12.10;94.10
54202;DHT22;40108;53.152;5.844;2023-05-07T07:00:58;12.20;94.10
54202;DHT22;40108;53.152;5.844;2023-05-07T07:03:23;12.30;94.00
54202;DHT22;40108;53.152;5.844;2023-05-07T07:05:54;12.20;93.70
54202;DHT22;40108;53.152;5.844;2023-05-07T07:08:19;12.30;93.30
54202;DHT22;40108;53.152;5.844;2023-05-07T07:10:47;12.30;93.30
54202;DHT22;40108;53.152;5.844;2023-05-07T07:13:13;12.30;93.20
54202;DHT22;40108;53.152;5.844;2023-05-07T07:15:39;12.30;92.80
54202;DHT22;40108;53.152;5.844;2023-05-07T07:18:05;12.40;93.10
54202;DHT22;40108;53.152;5.844;2023-05-07T07:20:31;12.40;93.10
54202;DHT22;40108;53.152;5.844;2023-05-07T07:22:57;12.40;92.70
54202;DHT22;40108;53.152;5.844;2023-05-07T07:25:23;12.50;92.90
54202;DHT22;40108;53.152;5.844;2023-05-07T07:27:49;12.50;92.40
54202;DHT22;40108;53.152;5.844;2023-05-07T07:30:15;12.50;92.20
54202;DHT22;40108;53.152;5.844;2023-05-07T07:32:41;12.50;92.30
54202;DHT22;40108;53.152;5.844;2023-05-07T07:35:07;12.60;91.90
54202;DHT22;40108;53.152;5.844;2023-05-07T07:37:33;12.60;92.10
54202;DHT22;40108;53.152;5.844;2023-05-07T07:39:59;12.70;92.30
54202;DHT22;40108;53.152;5.844;2023-05-07T07:42:25;12.70;92.20
54202;DHT22;40108;53.152;5.844;2023-05-07T07:44:51;12.70;92.20
54202;DHT22;40108;53.152;5.844;2023-05-07T07:47:17;12.80;92.20
54202;DHT22;40108;53.152;5.844;2023-05-07T07:49:43;12.80;92.30
54202;DHT22;40108;53.152;5.844;2023-05-07T07:52:09;12.90;92.10
54202;DHT22;40108;53.152;5.844;2023-05-07T07:54:34;12.80;91.80
54202;DHT22;40108;53.152;5.844;2023-05-07T07:57:00;12.80;91.90
54202;DHT22;40108;53.152;5.844;2023-05-07T07:59:26;12.80;91.20
54202;DHT22;40108;53.152;5.844;2023-05-07T08:01:52;12.80;91.40
54202;DHT22;40108;53.152;5.844;2023-05-07T08:04:21;12.80;91.30
54202;DHT22;40108;53.152;5.844;2023-05-07T08:06:47;12.90;91.40
54202;DHT22;40108;53.152;5.844;2023-05-07T08:09:12;13.00;91.60
54202;DHT22;40108;53.152;5.844;2023-05-07T08:11:38;13.00;91.60
54202;DHT22;40108;53.152;5.844;2023-05-07T08:14:04;13.00;91.10
54202;DHT22;40108;53.152;5.844;2023-05-07T08:16:30;13.10;91.10
54202;DHT22;40108;53.152;5.844;2023-05-07T08:18:56;13.10;91.20
54202;DHT22;40108;53.152;5.844;2023-05-07T08:21:22;13.10;91.10
54202;DHT22;40108;53.152;5.844;2023-05-07T08:23:48;13.10;90.80
54202;DHT22;40108;53.152;5.844;2023-05-07T08:26:14;13.10;91.20
54202;DHT22;40108;53.152;5.844;2023-05-07T08:28:40;13.20;91.00
54202;DHT22;40108;53.152;5.844;2023-05-07T08:31:05;13.20;90.80
54202;DHT22;40108;53.152;5.844;2023-05-07T08:33:31;13.30;90.80
54202;DHT22;40108;53.152;5.844;2023-05-07T08:35:57;13.60;90.50
54202;DHT22;40108;53.152;5.844;2023-05-07T08:38:22;13.90;90.70
54202;DHT22;40108;53.152;5.844;2023-05-07T08:40:48;14.30;89.80
54202;DHT22;40108;53.152;5.844;2023-05-07T08:43:14;14.40;88.20
54202;DHT22;40108;53.152;5.844;2023-05-07T08:45:45;14.40;88.00
54202;DHT22;40108;53.152;5.844;2023-05-07T08:48:17;14.30;87.60
54202;DHT22;40108;53.152;5.844;2023-05-07T08:50:43;14.30;87.70
54202;DHT22;40108;53.152;5.844;2023-05-07T08:53:09;14.20;87.20
54202;DHT22;40108;53.152;5.844;2023-05-07T08:55:34;14.20;87.30
54202;DHT22;40108;53.152;5.844;2023-05-07T08:58:00;14.20;87.50
54202;DHT22;40108;53.152;5.844;2023-05-07T09:00:26;14.30;87.90
54202;DHT22;40108;53.152;5.844;2023-05-07T09:02:56;14.30;88.00
54202;DHT22;40108;53.152;5.844;2023-05-07T09:05:21;14.30;86.90
54202;DHT22;40108;53.152;5.844;2023-05-07T09:07:47;14.40;87.80
54202;DHT22;40108;53.152;5.844;2023-05-07T09:10:13;14.50;87.00
54202;DHT22;40108;53.152;5.844;2023-05-07T09:12:40;14.40;86.60
54202;DHT22;40108;53.152;5.844;2023-05-07T09:15:06;14.40;87.10
54202;DHT22;40108;53.152;5.844;2023-05-07T09:17:32;14.40;87.10
54202;DHT22;40108;53.152;5.844;2023-05-07T09:20:05;14.50;87.80
54202;DHT22;40108;53.152;5.844;2023-05-07T09:22:32;14.50;86.80
54202;DHT22;40108;53.152;5.844;2023-05-07T09:24:58;14.50;87.10
54202;DHT22;40108;53.152;5.844;2023-05-07T09:27:25;14.60;87.10
54202;DHT22;40108;53.152;5.844;2023-05-07T09:29:51;14.60;87.40
54202;DHT22;40108;53.152;5.844;2023-05-07T09:32:17;14.60;86.30
54202;DHT22;40108;53.152;5.844;2023-05-07T09:34:43;14.60;86.60
54202;DHT22;40108;53.152;5.844;2023-05-07T09:37:10;14.60;86.70
54202;DHT22;40108;53.152;5.844;2023-05-07T09:39:45;14.70;86.10
54202;DHT22;40108;53.152;5.844;2023-05-07T09:42:11;14.70;86.70
54202;DHT22;40108;53.152;5.844;2023-05-07T09:44:38;14.70;86.00
54202;DHT22;40108;53.152;5.844;2023-05-07T09:47:07;15.00;86.20
54202;DHT22;40108;53.152;5.844;2023-05-07T09:49:35;15.20;85.70
54202;DHT22;40108;53.152;5.844;2023-05-07T09:52:03;15.30;84.50
54202;DHT22;40108;53.152;5.844;2023-05-07T09:54:29;15.50;84.90
54202;DHT22;40108;53.152;5.844;2023-05-07T09:56:55;15.60;84.30
54202;DHT22;40108;53.152;5.844;2023-05-07T09:59:21;15.80;83.90
54202;DHT22;40108;53.152;5.844;2023-05-07T10:01:49;15.90;83.50
54202;DHT22;40108;53.152;5.844;2023-05-07T10:04:16;15.90;83.40
54202;DHT22;40108;53.152;5.844;2023-05-07T10:06:43;15.80;82.90
54202;DHT22;40108;53.152;5.844;2023-05-07T10:09:10;16.10;83.70
54202;DHT22;40108;53.152;5.844;2023-05-07T10:11:36;16.20;82.10
54202;DHT22;40108;53.152;5.844;2023-05-07T10:14:03;16.30;82.40
54202;DHT22;40108;53.152;5.844;2023-05-07T10:16:35;16.50;82.50
54202;DHT22;40108;53.152;5.844;2023-05-07T10:19:06;16.60;81.70
54202;DHT22;40108;53.152;5.844;2023-05-07T10:21:36;16.60;81.30
54202;DHT22;40108;53.152;5.844;2023-05-07T10:24:27;16.70;81.40
54202;DHT22;40108;53.152;5.844;2023-05-07T10:26:55;16.80;80.40
54202;DHT22;40108;53.152;5.844;2023-05-07T10:32:40;17.00;80.10
54202;DHT22;40108;53.152;5.844;2023-05-07T10:35:17;16.90;79.80
54202;DHT22;40108;53.152;5.844;2023-05-07T10:37:45;16.90;80.00
54202;DHT22;40108;53.152;5.844;2023-05-07T10:40:12;16.90;80.10
54202;DHT22;40108;53.152;5.844;2023-05-07T10:42:38;16.90;79.60
54202;DHT22;40108;53.152;5.844;2023-05-07T10:45:14;17.00;79.50
54202;DHT22;40108;53.152;5.844;2023-05-07T10:50:34;16.80;78.30
54202;DHT22;40108;53.152;5.844;2023-05-07T10:55:48;17.10;77.90
54202;DHT22;40108;53.152;5.844;2023-05-07T10:58:26;17.30;78.10
54202;DHT22;40108;53.152;5.844;2023-05-07T11:01:02;17.40;79.30
54202;DHT22;40108;53.152;5.844;2023-05-07T11:03:28;17.60;78.60
54202;DHT22;40108;53.152;5.844;2023-05-07T11:06:14;17.80;76.50
54202;DHT22;40108;53.152;5.844;2023-05-07T11:08:56;17.80;76.40
54202;DHT22;40108;53.152;5.844;2023-05-07T11:11:44;17.90;75.80
54202;DHT22;40108;53.152;5.844;2023-05-07T11:14:10;18.00;77.10
54202;DHT22;40108;53.152;5.844;2023-05-07T11:16:37;18.10;76.20
54202;DHT22;40108;53.152;5.844;2023-05-07T11:19:04;18.30;76.60
54202;DHT22;40108;53.152;5.844;2023-05-07T11:21:42;18.40;76.00
54202;DHT22;40108;53.152;5.844;2023-05-07T11:24:09;18.60;75.00
54202;DHT22;40108;53.152;5.844;2023-05-07T11:26:49;18.60;75.00
54202;DHT22;40108;53.152;5.844;2023-05-07T11:29:20;18.50;75.00
54202;DHT22;40108;53.152;5.844;2023-05-07T11:31:50;18.50;74.90
54202;DHT22;40108;53.152;5.844;2023-05-07T11:34:21;18.50;75.40
54202;DHT22;40108;53.152;5.844;2023-05-07T11:36:47;18.50;75.10
54202;DHT22;40108;53.152;5.844;2023-05-07T11:39:28;18.50;75.80
54202;DHT22;40108;53.152;5.844;2023-05-07T11:41:54;18.50;74.70
54202;DHT22;40108;53.152;5.844;2023-05-07T11:44:20;18.50;75.20
54202;DHT22;40108;53.152;5.844;2023-05-07T11:46:46;18.60;74.70
54202;DHT22;40108;53.152;5.844;2023-05-07T11:49:12;18.60;74.30
54202;DHT22;40108;53.152;5.844;2023-05-07T11:51:39;18.50;74.30
54202;DHT22;40108;53.152;5.844;2023-05-07T11:54:05;18.40;73.80
54202;DHT22;40108;53.152;5.844;2023-05-07T11:56:37;18.30;74.40
54202;DHT22;40108;53.152;5.844;2023-05-07T11:59:04;18.30;75.10
54202;DHT22;40108;53.152;5.844;2023-05-07T12:01:30;18.20;75.80
54202;DHT22;40108;53.152;5.844;2023-05-07T12:03:56;18.20;75.60
54202;DHT22;40108;53.152;5.844;2023-05-07T12:06:21;18.40;76.50
54202;DHT22;40108;53.152;5.844;2023-05-07T12:08:47;18.50;75.20
54202;DHT22;40108;53.152;5.844;2023-05-07T12:11:15;18.60;76.00
54202;DHT22;40108;53.152;5.844;2023-05-07T12:13:43;18.60;75.40
54202;DHT22;40108;53.152;5.844;2023-05-07T12:16:09;18.80;75.20
54202;DHT22;40108;53.152;5.844;2023-05-07T12:18:36;19.00;74.70
54202;DHT22;40108;53.152;5.844;2023-05-07T12:21:04;19.10;74.40
54202;DHT22;40108;53.152;5.844;2023-05-07T12:23:30;19.20;75.30
54202;DHT22;40108;53.152;5.844;2023-05-07T12:25:56;19.30;73.60
54202;DHT22;40108;53.152;5.844;2023-05-07T12:28:21;19.30;72.10
54202;DHT22;40108;53.152;5.844;2023-05-07T12:30:48;19.20;72.90
54202;DHT22;40108;53.152;5.844;2023-05-07T12:33:24;19.20;74.10
54202;DHT22;40108;53.152;5.844;2023-05-07T12:35:50;19.30;73.40
54202;DHT22;40108;53.152;5.844;2023-05-07T12:38:18;19.30;72.40
54202;DHT22;40108;53.152;5.844;2023-05-07T12:40:54;19.10;72.30
54202;DHT22;40108;53.152;5.844;2023-05-07T12:43:27;19.10;72.90
54202;DHT22;40108;53.152;5.844;2023-05-07T12:45:59;19.20;73.60
54202;DHT22;40108;53.152;5.844;2023-05-07T12:48:26;19.10;72.90
54202;DHT22;40108;53.152;5.844;2023-05-07T12:50:55;19.20;72.30
54202;DHT22;40108;53.152;5.844;2023-05-07T12:53:23;19.30;73.20
54202;DHT22;40108;53.152;5.844;2023-05-07T12:55:51;19.30;72.40
54202;DHT22;40108;53.152;5.844;2023-05-07T12:58:28;19.20;72.50
54202;DHT22;40108;53.152;5.844;2023-05-07T13:00:56;19.30;74.50
54202;DHT22;40108;53.152;5.844;2023-05-07T13:03:26;19.30;74.10
54202;DHT22;40108;53.152;5.844;2023-05-07T13:05:54;19.30;74.20
54202;DHT22;40108;53.152;5.844;2023-05-07T13:08:31;19.20;73.80
54202;DHT22;40108;53.152;5.844;2023-05-07T13:11:01;19.10;74.80
54202;DHT22;40108;53.152;5.844;2023-05-07T13:13:34;19.10;75.40
54202;DHT22;40108;53.152;5.844;2023-05-07T13:16:01;19.30;75.40
54202;DHT22;40108;53.152;5.844;2023-05-07T13:18:29;19.20;75.60
54202;DHT22;40108;53.152;5.844;2023-05-07T13:20:56;19.30;75.00
54202;DHT22;40108;53.152;5.844;2023-05-07T13:23:22;19.40;75.50
54202;DHT22;40108;53.152;5.844;2023-05-07T13:25:49;19.50;75.40
54202;DHT22;40108;53.152;5.844;2023-05-07T13:28:16;19.50;75.30
54202;DHT22;40108;53.152;5.844;2023-05-07T13:30:42;19.50;75.60
54202;DHT22;40108;53.152;5.844;2023-05-07T13:33:08;19.60;75.00
54202;DHT22;40108;53.152;5.844;2023-05-07T13:35:35;19.60;75.00
54202;DHT22;40108;53.152;5.844;2023-05-07T13:38:00;19.60;74.20
54202;DHT22;40108;53.152;5.844;2023-05-07T13:40:26;19.50;74.90
54202;DHT22;40108;53.152;5.844;2023-05-07T13:42:58;19.40;75.40
54202;DHT22;40108;53.152;5.844;2023-05-07T13:45:25;19.50;75.20
54202;DHT22;40108;53.152;5.844;2023-05-07T13:47:51;19.50;75.80
54202;DHT22;40108;53.152;5.844;2023-05-07T13:50:17;19.40;74.70
54202;DHT22;40108;53.152;5.844;2023-05-07T13:52:44;19.40;76.00
54202;DHT22;40108;53.152;5.844;2023-05-07T13:55:17;19.40;73.10
54202;DHT22;40108;53.152;5.844;2023-05-07T13:57:43;19.40;71.70
54202;DHT22;40108;53.152;5.844;2023-05-07T14:00:09;19.40;71.70
54202;DHT22;40108;53.152;5.844;2023-05-07T14:02:35;19.50;71.90
54202;DHT22;40108;53.152;5.844;2023-05-07T14:05:01;19.50;72.60
54202;DHT22;40108;53.152;5.844;2023-05-07T14:07:26;19.60;70.80
54202;DHT22;40108;53.152;5.844;2023-05-07T14:09:52;19.50;71.50
54202;DHT22;40108;53.152;5.844;2023-05-07T14:12:18;19.50;72.30
54202;DHT22;40108;53.152;5.844;2023-05-07T14:14:43;19.50;71.80
54202;DHT22;40108;53.152;5.844;2023-05-07T14:17:10;19.50;71.30
54202;DHT22;40108;53.152;5.844;2023-05-07T14:19:36;19.50;71.90
54202;DHT22;40108;53.152;5.844;2023-05-07T14:22:02;19.50;71.70
54202;DHT22;40108;53.152;5.844;2023-05-07T14:24:27;19.50;71.20
54202;DHT22;40108;53.152;5.844;2023-05-07T14:26:53;19.50;70.50
54202;DHT22;40108;53.152;5.844;2023-05-07T14:29:19;19.40;70.10
54202;DHT22;40108;53.152;5.844;2023-05-07T14:31:45;19.50;71.20
54202;DHT22;40108;53.152;5.844;2023-05-07T14:34:11;19.50;70.00
54202;DHT22;40108;53.152;5.844;2023-05-07T14:36:36;19.50;71.30
54202;DHT22;40108;53.152;5.844;2023-05-07T14:39:03;19.50;71.00
54202;DHT22;40108;53.152;5.844;2023-05-07T14:41:29;19.50;70.50
54202;DHT22;40108;53.152;5.844;2023-05-07T14:43:55;19.50;71.50
54202;DHT22;40108;53.152;5.844;2023-05-07T14:46:21;19.50;71.80
54202;DHT22;40108;53.152;5.844;2023-05-07T14:48:47;19.50;70.70
54202;DHT22;40108;53.152;5.844;2023-05-07T14:51:13;19.50;71.40
54202;DHT22;40108;53.152;5.844;2023-05-07T14:53:40;19.40;71.40
54202;DHT22;40108;53.152;5.844;2023-05-07T14:56:05;19.40;71.30
54202;DHT22;40108;53.152;5.844;2023-05-07T14:58:31;19.30;71.50
54202;DHT22;40108;53.152;5.844;2023-05-07T15:00:57;19.40;72.10
54202;DHT22;40108;53.152;5.844;2023-05-07T15:03:24;19.30;71.90
54202;DHT22;40108;53.152;5.844;2023-05-07T15:05:50;19.30;72.80
54202;DHT22;40108;53.152;5.844;2023-05-07T15:08:17;19.40;73.00
54202;DHT22;40108;53.152;5.844;2023-05-07T15:10:43;19.40;73.60
54202;DHT22;40108;53.152;5.844;2023-05-07T15:13:10;19.40;73.80
54202;DHT22;40108;53.152;5.844;2023-05-07T15:15:36;19.40;73.70
54202;DHT22;40108;53.152;5.844;2023-05-07T15:18:03;19.40;73.70
54202;DHT22;40108;53.152;5.844;2023-05-07T15:20:29;19.40;74.10
54202;DHT22;40108;53.152;5.844;2023-05-07T15:22:55;19.40;73.20
54202;DHT22;40108;53.152;5.844;2023-05-07T15:25:21;19.40;73.70
54202;DHT22;40108;53.152;5.844;2023-05-07T15:27:47;19.40;73.40
54202;DHT22;40108;53.152;5.844;2023-05-07T15:30:13;19.30;73.60
54202;DHT22;40108;53.152;5.844;2023-05-07T15:32:40;19.30;73.80
54202;DHT22;40108;53.152;5.844;2023-05-07T15:35:07;19.30;73.50
54202;DHT22;40108;53.152;5.844;2023-05-07T15:37:33;19.20;73.90